Main page
METAR-TAF:

METAR-TAF

Airports :

Pembrey Airport

Pembrey, Wales

latitude: 51-43N, longitude: 004-22W, elevation: 3 m

Current weather observation

The report was made 1 hour and 4 minutes ago, at 17:50 UTC
Wind 10 kt from the North
Temperature 15°C
Humidity 88%
Pressure 1018 hPa
Visibility: 9000 m

METAR: EGOP 251750Z AUTO 01010KT 9000 // BKN029/// 15/13 Q1018

Time: 19:54 (18:54 UTC)


TAF: missing

Weather observations and forecasts of more than 4000 airports (METAR and TAF reports).

The available stations are represented by yellow and red dots on the map.

Hover mouse over dot to see the name of the station.

Then click to see weather observations and forecasts.

To change the map : click on the green buttons with a black cross to zoom in, on the green button with a dash to zoom out, or on the green arrows for adjacent maps.


METAR-TAF: